Time;durP1;ratioP1;P1;durP2;ratioP2;P2;SDS_P1;SDS_P2;PMS_P1;PMS_P2;Temp;Humidity;BMP_temperature;BMP_pressure;BME280_temperature;BME280_humidity;BME280_pressure;Samples;Min_cycle;Max_cycle;Signal;HPM_P1;HPM_P2
2020/12/28 00:02:17;;;;;;;1.15;0.70;;;6.40;99.90;;;;;;5013230;28;20299;-82
2020/12/28 00:04:43;;;;;;;0.90;0.90;;;6.40;99.90;;;;;;5012831;28;20805;-83
2020/12/28 00:07:11;;;;;;;0.88;0.80;;;6.30;99.90;;;;;;5011911;28;20310;-83
2020/12/28 00:09:37;;;;;;;1.10;0.80;;;6.20;99.90;;;;;;5013190;28;20330;-82
2020/12/28 00:12:03;;;;;;;1.60;0.57;;;6.30;99.90;;;;;;4962360;28;20789;-83
2020/12/28 00:14:30;;;;;;;0.80;0.63;;;6.30;99.90;;;;;;5013122;28;20290;-82
2020/12/28 00:16:56;;;;;;;0.75;0.63;;;6.30;99.90;;;;;;5013073;28;20299;-82
2020/12/28 00:19:22;;;;;;;0.60;0.50;;;6.30;99.90;;;;;;5013051;28;20345;-83
2020/12/28 00:21:49;;;;;;;0.70;0.70;;;6.30;99.90;;;;;;5011457;28;20328;-83
2020/12/28 00:24:16;;;;;;;0.80;0.55;;;6.20;99.90;;;;;;5012939;28;20338;-83
2020/12/28 00:26:44;;;;;;;0.98;0.60;;;6.20;99.90;;;;;;5012840;28;20282;-83
2020/12/28 00:29:13;;;;;;;1.08;0.80;;;6.20;99.90;;;;;;5013139;28;20614;-83
2020/12/28 00:31:40;;;;;;;0.85;0.50;;;6.20;99.90;;;;;;5012856;28;20321;-83
2020/12/28 00:34:07;;;;;;;1.20;1.20;;;6.20;99.90;;;;;;5012774;28;20243;-83
2020/12/28 00:36:33;;;;;;;1.42;0.63;;;6.20;99.90;;;;;;5010210;28;20291;-82
2020/12/28 00:38:59;;;;;;;0.98;0.70;;;6.10;99.90;;;;;;5012932;28;20298;-83
2020/12/28 00:41:26;;;;;;;1.30;1.05;;;6.10;99.90;;;;;;5012846;28;20203;-83
2020/12/28 00:43:53;;;;;;;1.77;1.10;;;6.10;99.90;;;;;;5012756;28;20774;-83
2020/12/28 00:46:19;;;;;;;1.52;1.08;;;5.90;99.90;;;;;;5012672;28;20243;-83
2020/12/28 00:48:45;;;;;;;1.55;1.30;;;5.90;99.90;;;;;;5012536;28;20299;-83
2020/12/28 00:51:13;;;;;;;1.48;0.93;;;5.80;99.90;;;;;;5011285;28;20227;-82
2020/12/28 00:53:39;;;;;;;1.02;0.77;;;5.80;99.90;;;;;;5012692;28;20642;-83
2020/12/28 00:56:06;;;;;;;1.70;1.00;;;5.80;99.90;;;;;;5012640;28;20254;-83
2020/12/28 00:58:35;;;;;;;1.77;1.35;;;5.80;99.90;;;;;;5009727;28;20286;-82
2020/12/28 01:01:02;;;;;;;2.00;0.80;;;5.80;99.90;;;;;;5012553;28;20208;-83
2020/12/28 01:03:28;;;;;;;2.25;0.70;;;5.80;99.90;;;;;;5012391;28;20302;-82
2020/12/28 01:05:54;;;;;;;1.90;0.75;;;5.90;99.90;;;;;;5012974;28;20298;-82
2020/12/28 01:08:21;;;;;;;1.42;1.33;;;5.90;99.90;;;;;;5016067;28;20315;-82
2020/12/28 01:10:47;;;;;;;0.88;0.80;;;5.90;99.90;;;;;;5016079;28;20298;-83
2020/12/28 01:13:14;;;;;;;0.70;0.70;;;5.90;99.90;;;;;;5016017;28;20299;-83
2020/12/28 01:15:42;;;;;;;1.27;0.80;;;5.80;99.90;;;;;;5016016;28;20207;-83
2020/12/28 01:18:08;;;;;;;1.05;0.80;;;5.80;99.90;;;;;;5016029;28;20299;-83
2020/12/28 01:20:37;;;;;;;2.33;1.20;;;5.80;99.90;;;;;;5016091;28;20754;-83
2020/12/28 01:23:03;;;;;;;1.05;1.00;;;5.80;99.90;;;;;;5014787;28;20207;-83
2020/12/28 01:25:30;;;;;;;2.95;0.80;;;5.80;99.90;;;;;;5016028;28;20314;-83
2020/12/28 01:27:56;;;;;;;0.75;0.75;;;5.80;99.90;;;;;;5016057;28;20295;-83
2020/12/28 01:30:22;;;;;;;0.95;0.85;;;5.70;99.90;;;;;;5015715;28;20238;-83
2020/12/28 01:32:50;;;;;;;0.70;0.60;;;5.70;99.90;;;;;;5015840;28;20325;-83
2020/12/28 01:35:16;;;;;;;1.13;0.75;;;5.80;99.90;;;;;;5014621;28;20286;-83
2020/12/28 01:37:42;;;;;;;0.80;0.77;;;5.80;99.90;;;;;;5014363;28;20294;-83
2020/12/28 01:40:09;;;;;;;0.80;0.80;;;5.90;99.90;;;;;;5015367;28;20294;-83
2020/12/28 01:42:35;;;;;;;0.47;0.47;;;5.90;99.90;;;;;;5011546;28;20243;-82
2020/12/28 01:45:01;;;;;;;0.50;0.50;;;6.00;99.90;;;;;;5015342;28;20295;-82
2020/12/28 01:47:28;;;;;;;1.15;0.60;;;6.00;99.90;;;;;;5015609;28;20617;-81
2020/12/28 01:49:56;;;;;;;1.02;0.93;;;6.10;99.90;;;;;;5015513;28;20235;-81
2020/12/28 01:52:22;;;;;;;0.55;0.55;;;6.20;99.90;;;;;;5014146;28;20642;-81
2020/12/28 01:54:49;;;;;;;1.88;0.68;;;6.20;99.90;;;;;;5015258;28;20231;-82
2020/12/28 01:57:15;;;;;;;0.70;0.60;;;6.30;99.90;;;;;;5015341;28;20337;-82
2020/12/28 01:59:42;;;;;;;0.57;0.57;;;6.30;99.90;;;;;;5015165;28;20286;-81
2020/12/28 02:02:10;;;;;;;0.73;0.73;;;6.30;99.90;;;;;;5015254;28;20302;-82
2020/12/28 02:04:37;;;;;;;1.08;0.70;;;6.30;99.90;;;;;;5015087;28;20214;-82
2020/12/28 02:07:06;;;;;;;0.60;0.40;;;6.30;99.90;;;;;;5014082;28;20658;-82
2020/12/28 02:09:33;;;;;;;1.13;0.57;;;6.30;99.90;;;;;;5014220;28;20334;-82
2020/12/28 02:11:59;;;;;;;1.25;0.75;;;6.30;99.90;;;;;;5014842;28;20330;-82
2020/12/28 02:14:25;;;;;;;0.88;0.65;;;6.30;99.90;;;;;;4980648;28;20294;-81
2020/12/28 02:16:52;;;;;;;1.13;0.90;;;6.30;99.90;;;;;;5014275;28;20215;-82
2020/12/28 02:19:18;;;;;;;0.70;0.50;;;6.30;99.90;;;;;;5015013;28;20676;-81
2020/12/28 02:21:45;;;;;;;0.82;0.80;;;6.40;99.90;;;;;;5013643;28;20211;-81
2020/12/28 02:24:16;;;;;;;0.50;0.40;;;6.30;99.90;;;;;;5014675;28;20286;-81
2020/12/28 02:26:42;;;;;;;0.50;0.50;;;6.30;99.90;;;;;;5014671;28;20205;-81
2020/12/28 02:29:09;;;;;;;0.55;0.50;;;6.20;99.90;;;;;;5014605;28;20294;-82
2020/12/28 02:31:35;;;;;;;0.73;0.40;;;6.20;99.90;;;;;;5014736;28;20282;-82
2020/12/28 02:34:01;;;;;;;0.88;0.50;;;6.10;99.90;;;;;;5014598;28;20203;-82
2020/12/28 02:36:28;;;;;;;0.60;0.55;;;6.10;99.90;;;;;;5012499;28;20353;-81
2020/12/28 02:38:55;;;;;;;1.70;0.60;;;6.00;99.90;;;;;;5014150;28;20237;-81
2020/12/28 02:41:24;;;;;;;0.50;0.40;;;5.90;99.90;;;;;;5014350;28;20214;-81
2020/12/28 02:43:50;;;;;;;0.40;0.40;;;5.80;99.90;;;;;;5014350;28;20617;-81
2020/12/28 02:46:16;;;;;;;0.80;0.60;;;5.80;99.90;;;;;;5014501;28;20207;-81
2020/12/28 02:48:43;;;;;;;0.55;0.40;;;5.70;99.90;;;;;;5014348;28;20203;-81
2020/12/28 02:51:12;;;;;;;0.60;0.55;;;5.70;99.90;;;;;;5012954;28;20231;-81
2020/12/28 02:53:38;;;;;;;0.52;0.52;;;5.60;99.90;;;;;;5013959;28;20298;-81
2020/12/28 02:56:05;;;;;;;0.60;0.50;;;5.60;99.90;;;;;;5014229;28;20238;-81
2020/12/28 02:58:32;;;;;;;0.40;0.40;;;5.60;99.90;;;;;;5014324;28;20291;-81
2020/12/28 03:00:58;;;;;;;0.68;0.60;;;5.60;99.90;;;;;;5014205;28;20211;-83
2020/12/28 03:03:24;;;;;;;0.60;0.50;;;5.50;99.90;;;;;;5014170;28;20204;-82
2020/12/28 03:05:51;;;;;;;0.50;0.40;;;5.50;99.90;;;;;;5012832;28;20290;-81
2020/12/28 03:08:17;;;;;;;1.25;0.50;;;5.50;99.90;;;;;;5010562;28;20726;-82
2020/12/28 03:10:43;;;;;;;0.52;0.40;;;5.60;99.90;;;;;;5012631;28;20793;-81
2020/12/28 03:13:11;;;;;;;0.60;0.60;;;5.60;99.90;;;;;;5013922;28;20381;-82
2020/12/28 03:15:37;;;;;;;2.50;0.50;;;5.50;99.90;;;;;;5013791;28;20298;-82
2020/12/28 03:18:03;;;;;;;0.60;0.60;;;5.40;99.90;;;;;;5013862;28;20291;-81
2020/12/28 03:20:30;;;;;;;0.95;0.50;;;5.40;99.90;;;;;;5013734;28;20294;-81
2020/12/28 03:22:56;;;;;;;1.50;0.73;;;5.40;99.90;;;;;;5012398;28;20297;-81
2020/12/28 03:25:22;;;;;;;0.75;0.70;;;5.50;99.90;;;;;;5013389;28;20261;-81
2020/12/28 03:27:49;;;;;;;1.73;0.50;;;5.50;99.90;;;;;;5013557;28;20290;-81
2020/12/28 03:30:16;;;;;;;0.50;0.40;;;5.50;99.90;;;;;;5012805;28;20326;-81
2020/12/28 03:32:42;;;;;;;0.40;0.40;;;5.50;99.90;;;;;;5013501;28;20326;-81
2020/12/28 03:35:09;;;;;;;0.75;0.75;;;5.50;99.90;;;;;;5012457;28;20210;-81
2020/12/28 03:37:35;;;;;;;0.90;0.50;;;5.40;99.90;;;;;;5011854;28;20294;-81
2020/12/28 03:40:02;;;;;;;0.50;0.43;;;5.40;99.90;;;;;;5013578;28;20204;-81
2020/12/28 03:42:28;;;;;;;0.50;0.50;;;5.40;99.90;;;;;;5013485;28;20692;-81
2020/12/28 03:44:54;;;;;;;0.40;0.38;;;5.50;99.90;;;;;;5013544;28;20199;-81
2020/12/28 03:47:21;;;;;;;0.40;0.40;;;5.50;99.90;;;;;;5013278;28;20295;-81
2020/12/28 03:49:49;;;;;;;0.70;0.70;;;5.50;99.90;;;;;;5013450;28;20294;-81
2020/12/28 03:52:15;;;;;;;0.93;0.70;;;5.50;99.90;;;;;;5011611;28;20326;-81
2020/12/28 03:54:41;;;;;;;0.50;0.40;;;5.50;99.90;;;;;;5013377;28;20302;-81
2020/12/28 03:57:08;;;;;;;1.30;0.50;;;5.50;99.90;;;;;;5013331;28;20295;-81
2020/12/28 03:59:34;;;;;;;0.60;0.60;;;5.50;99.90;;;;;;5013152;28;20227;-81
2020/12/28 04:02:00;;;;;;;2.78;0.60;;;5.40;99.90;;;;;;5013294;28;20243;-81
2020/12/28 04:04:27;;;;;;;0.75;0.40;;;5.40;99.90;;;;;;5013128;28;20210;-81
2020/12/28 04:06:54;;;;;;;0.50;0.50;;;5.40;99.90;;;;;;5011527;28;20478;-81
2020/12/28 04:09:20;;;;;;;0.77;0.55;;;5.40;99.90;;;;;;5013001;28;20239;-81
2020/12/28 04:11:46;;;;;;;0.50;0.47;;;5.30;99.90;;;;;;5012999;28;20329;-81
2020/12/28 04:14:13;;;;;;;0.52;0.50;;;5.30;99.90;;;;;;5012974;28;20206;-81
2020/12/28 04:16:39;;;;;;;1.88;0.63;;;5.30;99.90;;;;;;5013021;28;20298;-81
2020/12/28 04:19:05;;;;;;;0.60;0.60;;;5.30;99.90;;;;;;5013016;28;20208;-81
2020/12/28 04:21:33;;;;;;;0.95;0.60;;;5.20;99.90;;;;;;5011371;28;20609;-81
2020/12/28 04:23:59;;;;;;;0.50;0.40;;;5.20;99.90;;;;;;5013057;28;20238;-81
2020/12/28 04:26:25;;;;;;;1.67;0.60;;;5.10;99.90;;;;;;5012928;28;20277;-81
2020/12/28 04:28:51;;;;;;;0.50;0.50;;;5.10;99.90;;;;;;5011938;28;20290;-81
2020/12/28 04:31:18;;;;;;;1.33;0.60;;;5.10;99.90;;;;;;5012964;28;20344;-81
2020/12/28 04:33:45;;;;;;;0.90;0.85;;;5.10;99.90;;;;;;5012887;28;20794;-81
2020/12/28 04:36:11;;;;;;;1.08;1.00;;;5.10;99.90;;;;;;5011275;28;20278;-81
2020/12/28 04:38:38;;;;;;;0.88;0.88;;;5.10;99.90;;;;;;5003833;28;20294;-81
2020/12/28 04:41:05;;;;;;;1.02;0.93;;;5.10;99.90;;;;;;5015161;28;20724;-81
2020/12/28 04:43:32;;;;;;;1.02;1.00;;;5.20;99.90;;;;;;5016592;28;20203;-81
2020/12/28 04:46:02;;;;;;;1.70;1.60;;;5.20;99.90;;;;;;5016896;28;20290;-81
2020/12/28 04:48:31;;;;;;;1.40;0.93;;;5.30;99.90;;;;;;5016660;28;20667;-81
2020/12/28 04:50:58;;;;;;;0.80;0.65;;;5.30;99.90;;;;;;5014921;28;20204;-81
2020/12/28 04:53:26;;;;;;;0.50;0.50;;;5.30;99.90;;;;;;5016364;28;20286;-80
2020/12/28 04:55:53;;;;;;;1.55;0.73;;;5.40;99.90;;;;;;5016470;28;20322;-80
2020/12/28 04:58:19;;;;;;;1.15;0.90;;;5.40;99.90;;;;;;5016395;28;20211;-81
2020/12/28 05:00:46;;;;;;;0.50;0.50;;;5.40;99.90;;;;;;5016248;28;20199;-81
2020/12/28 05:03:14;;;;;;;1.85;0.60;;;5.30;99.90;;;;;;5016199;28;20278;-81
2020/12/28 05:05:44;;;;;;;0.70;0.70;;;5.30;99.90;;;;;;5015987;28;20204;-80
2020/12/28 05:08:11;;;;;;;1.60;1.17;;;5.30;99.90;;;;;;5015425;28;20240;-81
2020/12/28 05:10:37;;;;;;;3.30;1.50;;;5.40;99.90;;;;;;5016227;28;20571;-80
2020/12/28 05:13:08;;;;;;;0.75;0.70;;;5.30;99.90;;;;;;5008109;28;20269;-81
2020/12/28 05:15:35;;;;;;;1.15;0.57;;;5.30;99.90;;;;;;5016105;28;20203;-80
2020/12/28 05:18:01;;;;;;;2.00;0.55;;;5.40;99.90;;;;;;5016023;28;20622;-80
2020/12/28 05:20:28;;;;;;;0.70;0.45;;;5.40;99.90;;;;;;5016171;28;20736;-81
2020/12/28 05:22:54;;;;;;;3.25;0.55;;;5.40;99.90;;;;;;5014517;28;20287;-81
2020/12/28 05:25:22;;;;;;;1.80;1.08;;;5.40;99.90;;;;;;5015926;28;20290;-81
2020/12/28 05:27:50;;;;;;;0.98;0.70;;;5.40;99.90;;;;;;5015774;28;20214;-80
2020/12/28 05:30:21;;;;;;;1.35;1.08;;;5.40;99.90;;;;;;5015605;28;20204;-81
2020/12/28 05:32:48;;;;;;;1.50;1.13;;;5.40;99.90;;;;;;5015726;28;20227;-80
2020/12/28 05:35:14;;;;;;;1.23;0.65;;;5.40;99.90;;;;;;5014640;28;20222;-80
2020/12/28 05:37:41;;;;;;;1.33;0.88;;;5.40;99.90;;;;;;5014142;28;20290;-81
2020/12/28 05:40:13;;;;;;;0.55;0.55;;;5.50;99.90;;;;;;5015501;28;20269;-81
2020/12/28 05:42:49;;;;;;;1.02;0.70;;;5.50;99.90;;;;;;5015692;28;20322;-81
2020/12/28 05:45:17;;;;;;;1.38;0.52;;;5.50;99.90;;;;;;5015553;28;20203;-80
2020/12/28 05:47:49;;;;;;;1.80;1.10;;;5.50;99.90;;;;;;5015543;28;20210;-80
2020/12/28 05:50:20;;;;;;;0.90;0.60;;;5.50;99.90;;;;;;5015558;28;20849;-81
2020/12/28 05:52:52;;;;;;;1.77;0.75;;;5.50;99.90;;;;;;5013014;28;20699;-81
2020/12/28 05:55:21;;;;;;;1.02;0.80;;;5.50;99.90;;;;;;5014891;28;20665;-81
2020/12/28 05:57:48;;;;;;;0.98;0.60;;;5.50;99.90;;;;;;5015380;28;20302;-81
2020/12/28 06:00:14;;;;;;;1.15;0.80;;;5.60;99.90;;;;;;5015248;28;20204;-81
2020/12/28 06:02:41;;;;;;;3.28;2.00;;;5.60;99.90;;;;;;5015344;28;20207;-81
2020/12/28 06:05:09;;;;;;;0.93;0.70;;;5.50;99.90;;;;;;5015132;28;20298;-81
2020/12/28 06:07:35;;;;;;;1.88;1.10;;;5.50;99.90;;;;;;5012975;28;20203;-81
2020/12/28 06:10:01;;;;;;;0.70;0.60;;;5.50;99.90;;;;;;5014536;28;20235;-81
2020/12/28 06:12:28;;;;;;;0.65;0.60;;;5.50;99.90;;;;;;5010903;28;20235;-81
2020/12/28 06:14:54;;;;;;;4.03;2.03;;;5.50;99.90;;;;;;5015069;28;20238;-81
2020/12/28 06:17:31;;;;;;;2.70;1.38;;;5.50;99.90;;;;;;5014829;28;20290;-81
2020/12/28 06:20:01;;;;;;;1.20;0.95;;;5.60;99.90;;;;;;5015045;28;20213;-81
2020/12/28 06:22:28;;;;;;;0.50;0.45;;;5.60;99.90;;;;;;5013641;28;20210;-81
2020/12/28 06:24:59;;;;;;;0.63;0.60;;;5.50;99.90;;;;;;5014640;28;20207;-81
2020/12/28 06:27:27;;;;;;;2.47;0.80;;;5.60;99.90;;;;;;5014592;28;20200;-81
2020/12/28 06:29:54;;;;;;;0.93;0.90;;;5.60;99.90;;;;;;5014610;28;20207;-81
2020/12/28 06:32:20;;;;;;;2.97;0.60;;;5.60;99.90;;;;;;5014951;28;20590;-81
2020/12/28 06:34:59;;;;;;;0.88;0.60;;;5.60;99.90;;;;;;5014716;28;20349;-81
2020/12/28 06:37:27;;;;;;;1.13;0.85;;;5.60;99.90;;;;;;5012240;28;20291;-81
2020/12/28 06:39:57;;;;;;;3.63;1.35;;;5.60;99.90;;;;;;5014289;28;20295;-81
2020/12/28 06:42:23;;;;;;;0.57;0.57;;;5.60;99.90;;;;;;5014080;28;20629;-81
2020/12/28 06:44:50;;;;;;;0.85;0.85;;;5.60;99.90;;;;;;5014373;28;20199;-81
2020/12/28 06:47:18;;;;;;;0.80;0.80;;;5.60;99.90;;;;;;5014519;28;20295;-81
2020/12/28 06:49:45;;;;;;;1.40;1.00;;;5.60;99.90;;;;;;5014293;28;20702;-81
2020/12/28 06:52:11;;;;;;;1.10;0.50;;;5.60;99.90;;;;;;5013018;28;20322;-81
2020/12/28 06:54:38;;;;;;;1.00;0.70;;;5.60;99.90;;;;;;5014117;28;20203;-81
2020/12/28 06:57:05;;;;;;;1.20;0.63;;;5.60;99.90;;;;;;5013849;28;20224;-81
2020/12/28 06:59:32;;;;;;;1.30;0.85;;;5.60;99.90;;;;;;5014056;28;20214;-81
2020/12/28 07:02:00;;;;;;;0.95;0.80;;;5.60;99.90;;;;;;5014129;28;20207;-81
2020/12/28 07:04:27;;;;;;;0.50;0.50;;;5.50;99.90;;;;;;5013841;28;20628;-81
2020/12/28 07:06:57;;;;;;;0.77;0.77;;;5.50;99.90;;;;;;5012751;28;20207;-81
2020/12/28 07:09:24;;;;;;;0.70;0.50;;;5.50;99.90;;;;;;5013613;28;20242;-81
2020/12/28 07:11:51;;;;;;;2.20;2.00;;;5.50;99.90;;;;;;5013604;28;20745;-81
2020/12/28 07:14:19;;;;;;;1.98;1.88;;;5.50;99.90;;;;;;5013958;28;20291;-81
2020/12/28 07:16:45;;;;;;;2.13;1.10;;;5.50;99.90;;;;;;5013744;28;20203;-81
2020/12/28 07:19:12;;;;;;;2.47;1.10;;;5.50;99.90;;;;;;5013820;28;20294;-83
2020/12/28 07:21:38;;;;;;;1.70;1.60;;;5.50;99.90;;;;;;5012618;28;20671;-81
2020/12/28 07:24:07;;;;;;;1.20;0.88;;;5.50;99.90;;;;;;5013663;28;20271;-80
2020/12/28 07:26:34;;;;;;;2.63;2.28;;;5.50;99.90;;;;;;5013563;28;20215;-80
2020/12/28 07:29:01;;;;;;;1.20;1.00;;;5.40;99.90;;;;;;5013714;28;20291;-80
2020/12/28 07:31:27;;;;;;;8.48;5.10;;;5.40;99.90;;;;;;5013420;28;20207;-80
2020/12/28 07:33:54;;;;;;;2.03;1.00;;;5.40;99.90;;;;;;5012575;28;20291;-81
2020/12/28 07:36:24;;;;;;;1.95;1.85;;;5.30;99.90;;;;;;5012201;28;20341;-81
2020/12/28 07:38:51;;;;;;;1.85;1.40;;;5.40;99.90;;;;;;5013517;28;20298;-81
2020/12/28 07:41:19;;;;;;;0.75;0.75;;;5.40;99.90;;;;;;5013360;28;20568;-81
2020/12/28 07:43:50;;;;;;;0.75;0.75;;;5.30;99.90;;;;;;5013362;28;20299;-82
2020/12/28 07:46:41;;;;;;;1.60;1.08;;;5.30;99.90;;;;;;5013284;28;20216;-82
2020/12/28 07:49:14;;;;;;;1.23;0.90;;;5.30;99.90;;;;;;5013344;28;20341;-82
2020/12/28 07:51:41;;;;;;;5.82;1.23;;;5.30;99.90;;;;;;5011965;28;20223;-85
2020/12/28 07:54:16;;;;;;;1.33;1.00;;;5.30;99.90;;;;;;5013547;28;20200;-81
2020/12/28 07:56:46;;;;;;;1.63;0.95;;;5.30;99.90;;;;;;5014870;28;20600;-80
2020/12/28 07:59:40;;;;;;;1.25;0.90;;;5.20;99.90;;;;;;5013248;28;20200;-83
2020/12/28 08:02:32;;;;;;;0.90;0.90;;;5.20;99.90;;;;;;5013211;28;20290;-82
2020/12/28 08:05:00;;;;;;;1.33;0.73;;;5.20;99.90;;;;;;4973516;28;20282;-81
2020/12/28 08:07:26;;;;;;;6.63;1.10;;;5.20;99.90;;;;;;5011942;28;20291;-82
2020/12/28 08:09:54;;;;;;;1.48;0.85;;;5.20;99.90;;;;;;5012875;28;20330;-82
2020/12/28 08:12:21;;;;;;;3.95;1.52;;;5.20;99.90;;;;;;5012500;28;20289;-81
2020/12/28 08:14:53;;;;;;;1.50;1.10;;;5.20;99.90;;;;;;5014396;28;20286;-81
2020/12/28 08:17:23;;;;;;;0.88;0.80;;;5.20;99.90;;;;;;5015417;28;20214;-82
2020/12/28 08:19:50;;;;;;;2.50;2.15;;;5.20;99.90;;;;;;5019460;28;20580;-81
2020/12/28 08:22:20;;;;;;;5.85;5.22;;;5.20;99.90;;;;;;5018219;28;20235;-81
2020/12/28 08:24:57;;;;;;;3.67;2.83;;;5.30;99.90;;;;;;5019620;28;20207;-80
2020/12/28 08:27:24;;;;;;;3.72;3.00;;;5.40;99.90;;;;;;5019495;28;20234;-81
2020/12/28 08:29:52;;;;;;;1.67;1.20;;;5.40;99.90;;;;;;5019281;28;20306;-82
2020/12/28 08:32:18;;;;;;;4.18;1.60;;;5.40;99.90;;;;;;5019203;28;20317;-81
2020/12/28 08:34:55;;;;;;;0.80;0.63;;;5.60;99.90;;;;;;5018118;28;20226;-82
2020/12/28 08:37:21;;;;;;;5.25;3.90;;;5.60;99.90;;;;;;5018097;28;20207;-82
2020/12/28 08:39:48;;;;;;;7.28;5.25;;;5.70;99.90;;;;;;5019256;28;20235;-82
2020/12/28 08:42:14;;;;;;;1.58;0.70;;;5.70;99.90;;;;;;5019148;28;20282;-82
2020/12/28 08:44:42;;;;;;;0.90;0.63;;;5.60;99.90;;;;;;5019241;28;20200;-78
2020/12/28 08:47:11;;;;;;;1.33;0.90;;;5.60;99.90;;;;;;5019202;28;20773;-80
2020/12/28 08:49:40;;;;;;;0.75;0.75;;;5.70;99.90;;;;;;5019200;28;20322;-81
2020/12/28 08:52:11;;;;;;;0.80;0.80;;;5.60;99.90;;;;;;5017873;28;20288;-82
2020/12/28 08:54:38;;;;;;;1.00;1.00;;;5.60;99.90;;;;;;5019090;28;20694;-82
2020/12/28 08:57:05;;;;;;;1.50;0.95;;;5.60;99.90;;;;;;5019257;28;21037;-83
2020/12/28 08:59:32;;;;;;;1.58;1.20;;;5.50;99.90;;;;;;5019292;28;20290;-82
2020/12/28 09:01:58;;;;;;;2.20;1.45;;;5.50;99.90;;;;;;5019171;28;20651;-82
2020/12/28 09:04:25;;;;;;;3.20;1.55;;;5.40;99.90;;;;;;5018808;28;20299;-82
2020/12/28 09:06:52;;;;;;;6.13;3.03;;;5.50;99.90;;;;;;5017045;28;20960;-82
2020/12/28 09:09:19;;;;;;;3.10;1.70;;;5.50;99.90;;;;;;5018878;28;20231;-81
2020/12/28 09:11:46;;;;;;;2.40;1.50;;;5.50;99.90;;;;;;5019099;28;20227;-83
2020/12/28 09:14:13;;;;;;;0.95;0.95;;;5.50;99.90;;;;;;5018960;28;20211;-83
2020/12/28 09:16:39;;;;;;;1.60;1.50;;;5.40;99.90;;;;;;5018931;28;20590;-83
2020/12/28 09:19:06;;;;;;;2.05;1.55;;;5.50;99.90;;;;;;5018856;28;20294;-82
2020/12/28 09:21:32;;;;;;;2.28;1.65;;;5.50;99.90;;;;;;5017810;28;20295;-84
2020/12/28 09:23:59;;;;;;;1.25;1.15;;;5.50;99.90;;;;;;5018897;28;20203;-81
2020/12/28 09:26:28;;;;;;;1.50;1.40;;;5.50;99.90;;;;;;5017916;28;20371;-81
2020/12/28 09:28:55;;;;;;;3.92;1.35;;;5.60;99.90;;;;;;5015836;28;20204;-82
2020/12/28 09:31:21;;;;;;;1.50;1.40;;;5.60;99.90;;;;;;5015849;28;20242;-83
2020/12/28 09:33:49;;;;;;;1.63;1.50;;;5.60;99.90;;;;;;5014374;28;20223;-83
2020/12/28 09:36:18;;;;;;;4.13;2.22;;;5.60;99.90;;;;;;5014539;28;20199;-86
2020/12/28 09:38:45;;;;;;;2.90;1.30;;;5.70;99.90;;;;;;5015980;28;20210;-83
2020/12/28 09:41:11;;;;;;;1.27;1.15;;;5.70;99.90;;;;;;5014324;28;20718;-83
2020/12/28 09:43:40;;;;;;;1.40;1.30;;;5.70;99.90;;;;;;5015629;28;20212;-84
2020/12/28 09:46:06;;;;;;;1.60;1.40;;;5.70;99.90;;;;;;5011808;28;20285;-83
2020/12/28 09:48:33;;;;;;;1.30;1.15;;;5.80;99.90;;;;;;5015279;28;20306;-83
2020/12/28 09:50:59;;;;;;;0.80;0.80;;;5.80;99.90;;;;;;5014127;28;20303;-83
2020/12/28 09:53:26;;;;;;;0.70;0.70;;;5.80;99.90;;;;;;5015151;28;20325;-83
2020/12/28 09:55:52;;;;;;;1.40;0.77;;;5.90;99.90;;;;;;5015232;28;20303;-83
2020/12/28 09:58:18;;;;;;;0.70;0.63;;;5.90;99.90;;;;;;5015396;28;20554;-83
2020/12/28 10:00:45;;;;;;;1.48;1.15;;;6.00;99.90;;;;;;5015243;28;20235;-83
2020/12/28 10:03:12;;;;;;;0.80;0.80;;;6.00;99.90;;;;;;5015309;28;20216;-82
2020/12/28 10:05:38;;;;;;;0.68;0.68;;;6.10;99.90;;;;;;5013434;28;20310;-82
2020/12/28 10:08:04;;;;;;;0.70;0.60;;;6.10;99.90;;;;;;5013513;28;20718;-82
2020/12/28 10:10:31;;;;;;;1.05;0.82;;;6.20;99.90;;;;;;5015073;28;20208;-83
2020/12/28 10:12:57;;;;;;;1.35;1.13;;;6.20;99.90;;;;;;5014903;28;20367;-82
2020/12/28 10:15:25;;;;;;;1.15;1.05;;;6.10;99.90;;;;;;5015242;28;20549;-82
2020/12/28 10:18:30;;;;;;;1.33;1.23;;;6.20;99.90;;;;;;5014896;28;20214;-81
2020/12/28 10:20:56;;;;;;;1.40;1.30;;;6.20;99.90;;;;;;5013411;28;20287;-82
2020/12/28 10:23:23;;;;;;;2.40;2.05;;;6.20;99.90;;;;;;5014858;28;20295;-82
2020/12/28 10:25:49;;;;;;;1.52;1.42;;;6.20;99.90;;;;;;5014878;28;20211;-84
2020/12/28 10:28:15;;;;;;;1.85;1.30;;;6.30;99.90;;;;;;5014777;28;20310;-81
2020/12/28 10:30:42;;;;;;;2.13;1.92;;;6.20;99.90;;;;;;5014580;28;20638;-81
2020/12/28 10:33:08;;;;;;;2.85;2.55;;;6.10;99.90;;;;;;5014363;28;20759;-81
2020/12/28 10:35:35;;;;;;;2.45;2.17;;;6.10;99.90;;;;;;5013254;28;20214;-81
2020/12/28 10:38:01;;;;;;;2.67;2.03;;;6.10;99.90;;;;;;5012851;28;20651;-81
2020/12/28 10:40:28;;;;;;;2.70;2.42;;;6.10;99.90;;;;;;5014466;28;20242;-81
2020/12/28 10:42:54;;;;;;;2.33;1.73;;;6.10;99.90;;;;;;5014417;28;20199;-81
2020/12/28 10:45:21;;;;;;;1.77;1.67;;;6.10;99.90;;;;;;5014168;28;20294;-82
2020/12/28 10:47:47;;;;;;;3.42;2.03;;;6.20;99.90;;;;;;5014171;28;20299;-81
2020/12/28 10:50:13;;;;;;;3.30;2.30;;;6.20;99.90;;;;;;5014121;28;20290;-82
2020/12/28 10:52:41;;;;;;;2.67;2.20;;;6.20;99.90;;;;;;5013167;28;20262;-81
2020/12/28 10:55:07;;;;;;;3.20;2.90;;;6.20;99.90;;;;;;5014246;28;20211;-81
2020/12/28 10:57:34;;;;;;;3.95;3.55;;;6.10;99.90;;;;;;5014244;28;20298;-84
2020/12/28 11:00:00;;;;;;;2.70;2.50;;;6.20;99.90;;;;;;5013918;28;20254;-81
2020/12/28 11:02:41;;;;;;;4.15;3.50;;;6.20;99.90;;;;;;5014113;28;20346;-82
2020/12/28 11:05:07;;;;;;;3.00;2.45;;;6.20;99.90;;;;;;5013538;28;20244;-81
2020/12/28 11:07:34;;;;;;;3.63;3.33;;;6.20;99.90;;;;;;5012489;28;20207;-81
2020/12/28 11:10:01;;;;;;;4.20;2.97;;;6.10;99.90;;;;;;5013694;28;20267;-81
2020/12/28 11:12:27;;;;;;;4.60;4.10;;;6.00;99.90;;;;;;5013588;28;20242;-81
2020/12/28 11:14:54;;;;;;;3.92;3.35;;;5.90;99.90;;;;;;5013759;28;20283;-88
2020/12/28 11:17:20;;;;;;;5.10;3.13;;;5.90;99.90;;;;;;5013591;28;20241;-82
2020/12/28 11:19:46;;;;;;;3.60;3.30;;;6.00;99.90;;;;;;5013441;28;20242;-82
2020/12/28 11:22:13;;;;;;;5.53;4.20;;;6.00;99.90;;;;;;5014060;28;20675;-80
2020/12/28 11:24:39;;;;;;;5.28;3.95;;;6.00;99.90;;;;;;5013869;28;20320;-83
2020/12/28 11:27:06;;;;;;;6.78;3.72;;;6.10;99.90;;;;;;5014312;28;20286;-84
2020/12/28 11:29:33;;;;;;;6.97;3.67;;;6.20;99.90;;;;;;5013546;28;20286;-82
2020/12/28 11:31:59;;;;;;;5.53;4.55;;;6.10;99.90;;;;;;5013344;28;20228;-82
2020/12/28 11:34:25;;;;;;;6.10;4.03;;;6.00;99.90;;;;;;5012036;28;20204;-83
2020/12/28 11:36:52;;;;;;;4.00;3.60;;;6.00;99.90;;;;;;5012259;28;20222;-82
2020/12/28 11:39:18;;;;;;;4.30;3.90;;;6.10;99.90;;;;;;5013646;28;20221;-83
2020/12/28 11:41:44;;;;;;;5.90;3.83;;;6.10;99.90;;;;;;5012088;28;20207;-82
2020/12/28 11:44:14;;;;;;;6.15;5.32;;;6.10;99.90;;;;;;5013233;28;20290;-82
2020/12/28 11:46:42;;;;;;;5.90;3.88;;;6.20;99.90;;;;;;5012972;28;20257;-82
2020/12/28 11:49:08;;;;;;;4.50;3.85;;;6.20;99.90;;;;;;5012894;28;20660;-81
2020/12/28 11:51:37;;;;;;;7.93;4.70;;;6.30;99.90;;;;;;5011483;28;20214;-82
2020/12/28 11:54:03;;;;;;;7.88;4.65;;;6.20;99.90;;;;;;5012944;28;20231;-81
2020/12/28 11:56:35;;;;;;;4.43;3.90;;;6.20;99.90;;;;;;5012804;28;20291;-81
2020/12/28 11:59:01;;;;;;;11.73;4.70;;;6.20;99.90;;;;;;5013004;28;20290;-82
2020/12/28 12:01:28;;;;;;;5.22;3.75;;;6.10;99.90;;;;;;5012720;28;20659;-82
2020/12/28 12:03:55;;;;;;;7.73;4.30;;;6.20;99.90;;;;;;5013063;28;20238;-83
2020/12/28 12:06:22;;;;;;;5.07;4.45;;;6.20;99.90;;;;;;5011727;28;20541;-83
2020/12/28 12:11:35;;;;;;;3.95;3.55;;;6.30;99.90;;;;;;5012791;28;20580;-81
2020/12/28 12:14:02;;;;;;;4.82;4.25;;;6.20;99.90;;;;;;5012912;28;20235;-82
2020/12/28 12:16:30;;;;;;;5.70;4.55;;;6.30;99.90;;;;;;5012586;28;20294;-86
2020/12/28 12:18:56;;;;;;;4.45;4.05;;;6.20;99.90;;;;;;5013186;28;20210;-81
2020/12/28 12:21:23;;;;;;;4.50;4.10;;;6.30;99.90;;;;;;5010397;28;20212;-82
2020/12/28 12:23:49;;;;;;;5.13;4.00;;;6.30;99.90;;;;;;5013107;28;20203;-82
2020/12/28 12:26:19;;;;;;;4.07;3.20;;;6.30;99.90;;;;;;5012996;28;20203;-83
2020/12/28 12:28:45;;;;;;;4.13;3.67;;;6.20;99.90;;;;;;5012861;28;20208;-83
2020/12/28 12:31:13;;;;;;;5.07;4.18;;;6.10;99.90;;;;;;5012896;28;20238;-83
2020/12/28 12:33:41;;;;;;;4.40;3.92;;;6.10;99.90;;;;;;5011124;28;20602;-83
2020/12/28 12:36:07;;;;;;;4.70;3.80;;;6.20;99.90;;;;;;5011631;28;20297;-83
2020/12/28 12:38:34;;;;;;;4.20;3.80;;;6.30;99.90;;;;;;5012786;28;20208;-83
2020/12/28 12:41:00;;;;;;;5.15;3.80;;;6.30;99.90;;;;;;5012663;28;20298;-83
2020/12/28 12:43:27;;;;;;;4.72;4.28;;;6.10;99.90;;;;;;5012736;28;20335;-83
2020/12/28 12:45:53;;;;;;;6.05;4.50;;;6.10;99.90;;;;;;5012809;28;20294;-83
2020/12/28 12:48:20;;;;;;;6.97;5.28;;;6.10;99.90;;;;;;5012354;28;20294;-83
2020/12/28 12:50:48;;;;;;;9.00;6.93;;;6.10;99.90;;;;;;5012452;28;20605;-84
2020/12/28 12:53:15;;;;;;;6.50;5.80;;;6.20;99.90;;;;;;5012194;28;20231;-83
2020/12/28 12:55:41;;;;;;;5.22;4.40;;;6.10;99.90;;;;;;5012684;28;20309;-83
2020/12/28 12:58:08;;;;;;;4.25;3.85;;;6.10;99.90;;;;;;5012718;28;20302;-83
2020/12/28 13:00:34;;;;;;;3.67;3.25;;;6.10;99.90;;;;;;5012586;28;20635;-83
2020/12/28 13:03:01;;;;;;;4.78;3.10;;;6.00;99.90;;;;;;5016146;28;20203;-83